DTTA/TUN METAR and TAF weather

Enter ICAO airport designator
Station Type Date Time Source
DTTA METAR 2018/10/22 16:00 UTC NOAA

DTTA 221600Z 36006KT 330V030 8000 SCT020TCU SCT040 18/14 Q1013 NOSIG


Station Type Date Time Source
DTTA Decoded METAR 2018/10/22 16:00 UTC NOAA

Tunis-Carthage, Tunisia (DTTA) 36-50N 010-14E 4M
Oct 22, 2018 - 12:00 PM EDT / 2018.10.22 1600 UTC
Wind: from the N (360 degrees) at 7 MPH (6 KT) (direction variable):0
Visibility: 4 mile(s):0
Sky conditions: partly cloudy
Weather: Towering cumulus clouds observed
Temperature: 64 F (18 C)
Dew Point: 57 F (14 C)
Relative Humidity: 77%
Pressure (altimeter): 29.91 in. Hg (1013 hPa)
ob: DTTA 221600Z 36006KT 330V030 8000 SCT020TCU SCT040 18/14 Q1013 NOSIG
cycle: 16

Station Type Date Time Source
DTTA TAF 2018/10/22 12:58 UTC NOAA

TAF DTTA 221100Z 2212/2312 27010KT 9999 FEW026 PROB40
TEMPO 2215/2221 01015G25KT 3000 +TSRA FEW023CB
BECMG 2220/2224 34023KT
TEMPO 2303/2312 33037G53KT 0800 SQ TSRA SCT026CB


Example: see airport list